sensor_id;sensor_type;location;lat;lon;timestamp;P1;durP1;ratioP1;P2;durP2;ratioP2
15198;SDS011;7700;48.654;9.070;2022-11-21T00:00:58;1.20;;;0.50;;
15198;SDS011;7700;48.654;9.070;2022-11-21T00:03:25;0.40;;;0.40;;
15198;SDS011;7700;48.654;9.070;2022-11-21T00:05:51;0.60;;;0.50;;
15198;SDS011;7700;48.654;9.070;2022-11-21T00:08:18;1.03;;;1.03;;
15198;SDS011;7700;48.654;9.070;2022-11-21T00:10:44;0.30;;;0.30;;
15198;SDS011;7700;48.654;9.070;2022-11-21T00:13:11;0.33;;;0.30;;
15198;SDS011;7700;48.654;9.070;2022-11-21T00:15:38;0.20;;;0.20;;
15198;SDS011;7700;48.654;9.070;2022-11-21T00:18:04;0.20;;;0.20;;
15198;SDS011;7700;48.654;9.070;2022-11-21T00:20:30;0.20;;;0.20;;
15198;SDS011;7700;48.654;9.070;2022-11-21T00:22:56;0.30;;;0.30;;
15198;SDS011;7700;48.654;9.070;2022-11-21T00:25:22;0.50;;;0.50;;
15198;SDS011;7700;48.654;9.070;2022-11-21T00:27:48;0.33;;;0.33;;
15198;SDS011;7700;48.654;9.070;2022-11-21T00:30:14;0.30;;;0.30;;
15198;SDS011;7700;48.654;9.070;2022-11-21T00:32:40;0.30;;;0.30;;
15198;SDS011;7700;48.654;9.070;2022-11-21T00:35:06;0.47;;;0.20;;
15198;SDS011;7700;48.654;9.070;2022-11-21T00:37:32;0.27;;;0.20;;
15198;SDS011;7700;48.654;9.070;2022-11-21T00:39:58;0.30;;;0.30;;
15198;SDS011;7700;48.654;9.070;2022-11-21T00:42:24;0.47;;;0.27;;
15198;SDS011;7700;48.654;9.070;2022-11-21T00:44:50;0.60;;;0.40;;
15198;SDS011;7700;48.654;9.070;2022-11-21T00:47:16;0.40;;;0.30;;
15198;SDS011;7700;48.654;9.070;2022-11-21T00:49:42;0.30;;;0.30;;
15198;SDS011;7700;48.654;9.070;2022-11-21T00:52:08;0.57;;;0.50;;
15198;SDS011;7700;48.654;9.070;2022-11-21T00:54:34;0.30;;;0.30;;
15198;SDS011;7700;48.654;9.070;2022-11-21T00:57:00;0.70;;;0.50;;
15198;SDS011;7700;48.654;9.070;2022-11-21T00:59:26;0.40;;;0.40;;
15198;SDS011;7700;48.654;9.070;2022-11-21T01:01:52;1.13;;;0.63;;
15198;SDS011;7700;48.654;9.070;2022-11-21T01:04:18;0.43;;;0.37;;
15198;SDS011;7700;48.654;9.070;2022-11-21T01:06:44;0.47;;;0.47;;
15198;SDS011;7700;48.654;9.070;2022-11-21T01:09:10;1.50;;;0.60;;
15198;SDS011;7700;48.654;9.070;2022-11-21T01:11:36;1.03;;;0.50;;
15198;SDS011;7700;48.654;9.070;2022-11-21T01:14:02;1.30;;;0.77;;
15198;SDS011;7700;48.654;9.070;2022-11-21T01:16:28;0.67;;;0.60;;
15198;SDS011;7700;48.654;9.070;2022-11-21T01:18:55;2.07;;;0.60;;
15198;SDS011;7700;48.654;9.070;2022-11-21T01:21:22;1.57;;;0.80;;
15198;SDS011;7700;48.654;9.070;2022-11-21T01:23:49;1.20;;;0.87;;
15198;SDS011;7700;48.654;9.070;2022-11-21T01:26:16;1.83;;;0.70;;
15198;SDS011;7700;48.654;9.070;2022-11-21T01:28:42;1.80;;;0.80;;
15198;SDS011;7700;48.654;9.070;2022-11-21T01:31:18;1.20;;;0.67;;
15198;SDS011;7700;48.654;9.070;2022-11-21T01:33:45;2.67;;;0.90;;
15198;SDS011;7700;48.654;9.070;2022-11-21T01:36:21;1.67;;;0.80;;
15198;SDS011;7700;48.654;9.070;2022-11-21T01:38:48;1.60;;;0.70;;
15198;SDS011;7700;48.654;9.070;2022-11-21T01:41:15;0.73;;;0.73;;
15198;SDS011;7700;48.654;9.070;2022-11-21T01:43:42;2.27;;;0.80;;
15198;SDS011;7700;48.654;9.070;2022-11-21T01:48:36;2.13;;;0.80;;
15198;SDS011;7700;48.654;9.070;2022-11-21T01:51:09;2.30;;;0.70;;
15198;SDS011;7700;48.654;9.070;2022-11-21T01:53:36;1.60;;;0.77;;
15198;SDS011;7700;48.654;9.070;2022-11-21T01:56:03;0.60;;;0.60;;
15198;SDS011;7700;48.654;9.070;2022-11-21T01:58:30;2.63;;;1.20;;
15198;SDS011;7700;48.654;9.070;2022-11-21T02:00:58;0.60;;;0.53;;
15198;SDS011;7700;48.654;9.070;2022-11-21T02:03:25;1.33;;;0.80;;
15198;SDS011;7700;48.654;9.070;2022-11-21T02:05:52;2.53;;;0.70;;
15198;SDS011;7700;48.654;9.070;2022-11-21T02:08:19;1.03;;;0.60;;
15198;SDS011;7700;48.654;9.070;2022-11-21T02:10:53;1.17;;;0.67;;
15198;SDS011;7700;48.654;9.070;2022-11-21T02:13:22;2.90;;;0.70;;
15198;SDS011;7700;48.654;9.070;2022-11-21T02:15:49;0.70;;;0.70;;
15198;SDS011;7700;48.654;9.070;2022-11-21T02:18:15;1.20;;;0.90;;
15198;SDS011;7700;48.654;9.070;2022-11-21T02:20:42;1.03;;;0.70;;
15198;SDS011;7700;48.654;9.070;2022-11-21T02:23:14;1.30;;;0.83;;
15198;SDS011;7700;48.654;9.070;2022-11-21T02:25:42;1.67;;;1.20;;
15198;SDS011;7700;48.654;9.070;2022-11-21T02:28:10;1.63;;;0.80;;
15198;SDS011;7700;48.654;9.070;2022-11-21T02:30:37;0.80;;;0.80;;
15198;SDS011;7700;48.654;9.070;2022-11-21T02:33:04;2.07;;;0.70;;
15198;SDS011;7700;48.654;9.070;2022-11-21T02:35:30;1.47;;;0.60;;
15198;SDS011;7700;48.654;9.070;2022-11-21T02:40:36;1.50;;;0.70;;
15198;SDS011;7700;48.654;9.070;2022-11-21T02:43:08;3.50;;;1.60;;
15198;SDS011;7700;48.654;9.070;2022-11-21T02:45:39;1.53;;;0.63;;
15198;SDS011;7700;48.654;9.070;2022-11-21T02:48:06;1.03;;;0.40;;
15198;SDS011;7700;48.654;9.070;2022-11-21T02:50:36;0.80;;;0.43;;
15198;SDS011;7700;48.654;9.070;2022-11-21T02:53:03;0.70;;;0.50;;
15198;SDS011;7700;48.654;9.070;2022-11-21T02:55:29;1.23;;;0.63;;
15198;SDS011;7700;48.654;9.070;2022-11-21T02:57:55;0.60;;;0.60;;
15198;SDS011;7700;48.654;9.070;2022-11-21T03:00:21;0.50;;;0.50;;
15198;SDS011;7700;48.654;9.070;2022-11-21T03:02:48;0.40;;;0.40;;
15198;SDS011;7700;48.654;9.070;2022-11-21T03:05:14;0.57;;;0.53;;
15198;SDS011;7700;48.654;9.070;2022-11-21T03:07:41;0.90;;;0.37;;
15198;SDS011;7700;48.654;9.070;2022-11-21T03:10:07;1.80;;;0.60;;
15198;SDS011;7700;48.654;9.070;2022-11-21T03:12:37;1.70;;;0.80;;
15198;SDS011;7700;48.654;9.070;2022-11-21T03:15:03;0.70;;;0.60;;
15198;SDS011;7700;48.654;9.070;2022-11-21T03:17:29;0.80;;;0.80;;
15198;SDS011;7700;48.654;9.070;2022-11-21T03:19:55;1.53;;;1.03;;
15198;SDS011;7700;48.654;9.070;2022-11-21T03:22:21;0.77;;;0.37;;
15198;SDS011;7700;48.654;9.070;2022-11-21T03:24:47;1.13;;;0.50;;
15198;SDS011;7700;48.654;9.070;2022-11-21T03:27:13;2.03;;;0.50;;
15198;SDS011;7700;48.654;9.070;2022-11-21T03:29:39;0.33;;;0.33;;
15198;SDS011;7700;48.654;9.070;2022-11-21T03:32:05;0.63;;;0.47;;
15198;SDS011;7700;48.654;9.070;2022-11-21T03:34:31;0.97;;;0.30;;
15198;SDS011;7700;48.654;9.070;2022-11-21T03:36:57;1.50;;;0.40;;
15198;SDS011;7700;48.654;9.070;2022-11-21T03:39:23;1.00;;;0.40;;
15198;SDS011;7700;48.654;9.070;2022-11-21T03:41:49;1.90;;;0.50;;
15198;SDS011;7700;48.654;9.070;2022-11-21T03:44:15;0.53;;;0.50;;
15198;SDS011;7700;48.654;9.070;2022-11-21T03:46:43;0.40;;;0.33;;
15198;SDS011;7700;48.654;9.070;2022-11-21T03:49:09;0.30;;;0.30;;
15198;SDS011;7700;48.654;9.070;2022-11-21T03:51:36;0.50;;;0.50;;
15198;SDS011;7700;48.654;9.070;2022-11-21T03:54:02;2.10;;;1.40;;
15198;SDS011;7700;48.654;9.070;2022-11-21T03:56:29;2.10;;;0.67;;
15198;SDS011;7700;48.654;9.070;2022-11-21T03:58:55;0.97;;;0.50;;
15198;SDS011;7700;48.654;9.070;2022-11-21T04:01:21;1.83;;;0.50;;
15198;SDS011;7700;48.654;9.070;2022-11-21T04:03:47;0.70;;;0.70;;
15198;SDS011;7700;48.654;9.070;2022-11-21T04:06:14;1.90;;;0.77;;
15198;SDS011;7700;48.654;9.070;2022-11-21T04:08:41;0.83;;;0.40;;
15198;SDS011;7700;48.654;9.070;2022-11-21T04:11:07;1.00;;;0.80;;
15198;SDS011;7700;48.654;9.070;2022-11-21T04:13:33;1.10;;;0.60;;
15198;SDS011;7700;48.654;9.070;2022-11-21T04:15:59;3.13;;;0.80;;
15198;SDS011;7700;48.654;9.070;2022-11-21T04:18:25;0.50;;;0.50;;
15198;SDS011;7700;48.654;9.070;2022-11-21T04:20:57;0.73;;;0.60;;
15198;SDS011;7700;48.654;9.070;2022-11-21T04:23:24;1.17;;;0.60;;
15198;SDS011;7700;48.654;9.070;2022-11-21T04:25:50;2.20;;;0.90;;
15198;SDS011;7700;48.654;9.070;2022-11-21T04:28:16;0.70;;;0.40;;
15198;SDS011;7700;48.654;9.070;2022-11-21T04:30:42;0.77;;;0.63;;
15198;SDS011;7700;48.654;9.070;2022-11-21T04:33:09;1.90;;;0.73;;
15198;SDS011;7700;48.654;9.070;2022-11-21T04:35:35;0.50;;;0.50;;
15198;SDS011;7700;48.654;9.070;2022-11-21T04:38:01;1.43;;;0.60;;
15198;SDS011;7700;48.654;9.070;2022-11-21T04:40:27;2.47;;;1.07;;
15198;SDS011;7700;48.654;9.070;2022-11-21T04:42:53;0.70;;;0.70;;
15198;SDS011;7700;48.654;9.070;2022-11-21T04:45:19;0.93;;;0.80;;
15198;SDS011;7700;48.654;9.070;2022-11-21T04:47:45;1.40;;;0.70;;
15198;SDS011;7700;48.654;9.070;2022-11-21T04:50:14;0.53;;;0.53;;
15198;SDS011;7700;48.654;9.070;2022-11-21T04:52:40;0.50;;;0.50;;
15198;SDS011;7700;48.654;9.070;2022-11-21T04:55:06;0.60;;;0.60;;
15198;SDS011;7700;48.654;9.070;2022-11-21T04:57:33;1.97;;;0.43;;
15198;SDS011;7700;48.654;9.070;2022-11-21T04:59:59;0.50;;;0.40;;
15198;SDS011;7700;48.654;9.070;2022-11-21T05:02:25;0.53;;;0.50;;
15198;SDS011;7700;48.654;9.070;2022-11-21T05:04:51;0.77;;;0.60;;
15198;SDS011;7700;48.654;9.070;2022-11-21T05:07:17;0.40;;;0.30;;
15198;SDS011;7700;48.654;9.070;2022-11-21T05:09:43;0.33;;;0.33;;
15198;SDS011;7700;48.654;9.070;2022-11-21T05:12:09;0.50;;;0.50;;
15198;SDS011;7700;48.654;9.070;2022-11-21T05:14:54;0.43;;;0.40;;
15198;SDS011;7700;48.654;9.070;2022-11-21T05:17:20;0.77;;;0.30;;
15198;SDS011;7700;48.654;9.070;2022-11-21T05:19:47;0.90;;;0.60;;
15198;SDS011;7700;48.654;9.070;2022-11-21T05:22:13;1.53;;;0.67;;
15198;SDS011;7700;48.654;9.070;2022-11-21T05:24:39;1.20;;;0.70;;
15198;SDS011;7700;48.654;9.070;2022-11-21T05:27:05;0.60;;;0.60;;
15198;SDS011;7700;48.654;9.070;2022-11-21T05:29:31;1.07;;;0.50;;
15198;SDS011;7700;48.654;9.070;2022-11-21T05:31:57;0.80;;;0.40;;
15198;SDS011;7700;48.654;9.070;2022-11-21T05:34:23;0.87;;;0.50;;
15198;SDS011;7700;48.654;9.070;2022-11-21T05:36:51;0.83;;;0.83;;
15198;SDS011;7700;48.654;9.070;2022-11-21T05:39:21;1.70;;;0.60;;
15198;SDS011;7700;48.654;9.070;2022-11-21T05:41:47;0.30;;;0.30;;
15198;SDS011;7700;48.654;9.070;2022-11-21T05:44:13;0.70;;;0.70;;
15198;SDS011;7700;48.654;9.070;2022-11-21T05:46:39;1.47;;;0.70;;
15198;SDS011;7700;48.654;9.070;2022-11-21T05:49:05;0.70;;;0.60;;
15198;SDS011;7700;48.654;9.070;2022-11-21T05:51:31;0.57;;;0.40;;
15198;SDS011;7700;48.654;9.070;2022-11-21T05:53:57;1.70;;;0.50;;
15198;SDS011;7700;48.654;9.070;2022-11-21T05:56:24;1.53;;;0.90;;
15198;SDS011;7700;48.654;9.070;2022-11-21T05:58:50;2.63;;;1.00;;
15198;SDS011;7700;48.654;9.070;2022-11-21T06:01:16;0.90;;;0.63;;
15198;SDS011;7700;48.654;9.070;2022-11-21T06:04:02;0.53;;;0.50;;
15198;SDS011;7700;48.654;9.070;2022-11-21T06:06:28;0.53;;;0.40;;
15198;SDS011;7700;48.654;9.070;2022-11-21T06:08:54;0.40;;;0.40;;
15198;SDS011;7700;48.654;9.070;2022-11-21T06:11:20;0.73;;;0.60;;
15198;SDS011;7700;48.654;9.070;2022-11-21T06:13:46;1.17;;;0.70;;
15198;SDS011;7700;48.654;9.070;2022-11-21T06:16:13;0.83;;;0.50;;
15198;SDS011;7700;48.654;9.070;2022-11-21T06:18:40;1.03;;;0.50;;
15198;SDS011;7700;48.654;9.070;2022-11-21T06:23:33;0.50;;;0.50;;
15198;SDS011;7700;48.654;9.070;2022-11-21T06:26:00;1.67;;;0.70;;
15198;SDS011;7700;48.654;9.070;2022-11-21T06:28:29;0.77;;;0.40;;
15198;SDS011;7700;48.654;9.070;2022-11-21T06:30:55;0.60;;;0.50;;
15198;SDS011;7700;48.654;9.070;2022-11-21T06:33:21;0.60;;;0.60;;
15198;SDS011;7700;48.654;9.070;2022-11-21T06:35:47;0.70;;;0.50;;
15198;SDS011;7700;48.654;9.070;2022-11-21T06:38:13;1.03;;;0.70;;
15198;SDS011;7700;48.654;9.070;2022-11-21T06:40:42;0.70;;;0.50;;
15198;SDS011;7700;48.654;9.070;2022-11-21T06:43:08;1.70;;;0.80;;
15198;SDS011;7700;48.654;9.070;2022-11-21T06:45:34;1.17;;;0.63;;
15198;SDS011;7700;48.654;9.070;2022-11-21T06:48:03;0.70;;;0.70;;
15198;SDS011;7700;48.654;9.070;2022-11-21T06:50:29;1.37;;;0.70;;
15198;SDS011;7700;48.654;9.070;2022-11-21T06:52:56;0.47;;;0.47;;
15198;SDS011;7700;48.654;9.070;2022-11-21T06:55:22;1.53;;;0.80;;
15198;SDS011;7700;48.654;9.070;2022-11-21T06:57:50;1.33;;;0.80;;
15198;SDS011;7700;48.654;9.070;2022-11-21T07:00:16;0.70;;;0.70;;
15198;SDS011;7700;48.654;9.070;2022-11-21T07:02:42;0.87;;;0.70;;
15198;SDS011;7700;48.654;9.070;2022-11-21T07:05:08;1.70;;;0.97;;
15198;SDS011;7700;48.654;9.070;2022-11-21T07:07:34;2.03;;;0.93;;
15198;SDS011;7700;48.654;9.070;2022-11-21T07:10:00;1.90;;;1.30;;
15198;SDS011;7700;48.654;9.070;2022-11-21T07:12:26;1.43;;;1.20;;
15198;SDS011;7700;48.654;9.070;2022-11-21T07:15:11;1.77;;;0.97;;
15198;SDS011;7700;48.654;9.070;2022-11-21T07:17:37;2.47;;;1.00;;
15198;SDS011;7700;48.654;9.070;2022-11-21T07:20:03;1.33;;;1.23;;
15198;SDS011;7700;48.654;9.070;2022-11-21T07:22:29;2.47;;;1.50;;
15198;SDS011;7700;48.654;9.070;2022-11-21T07:24:55;3.67;;;1.90;;
15198;SDS011;7700;48.654;9.070;2022-11-21T07:27:21;1.83;;;1.40;;
15198;SDS011;7700;48.654;9.070;2022-11-21T07:29:47;1.73;;;1.00;;
15198;SDS011;7700;48.654;9.070;2022-11-21T07:32:13;1.30;;;1.20;;
15198;SDS011;7700;48.654;9.070;2022-11-21T07:34:39;2.83;;;2.03;;
15198;SDS011;7700;48.654;9.070;2022-11-21T07:37:05;1.80;;;0.97;;
15198;SDS011;7700;48.654;9.070;2022-11-21T07:39:31;3.03;;;0.70;;
15198;SDS011;7700;48.654;9.070;2022-11-21T07:41:57;0.70;;;0.70;;
15198;SDS011;7700;48.654;9.070;2022-11-21T07:44:23;1.10;;;0.97;;
15198;SDS011;7700;48.654;9.070;2022-11-21T07:46:52;1.00;;;0.90;;
15198;SDS011;7700;48.654;9.070;2022-11-21T07:49:19;2.27;;;1.20;;
15198;SDS011;7700;48.654;9.070;2022-11-21T07:51:45;1.70;;;1.60;;
15198;SDS011;7700;48.654;9.070;2022-11-21T07:54:11;1.43;;;1.00;;
15198;SDS011;7700;48.654;9.070;2022-11-21T07:56:37;2.07;;;0.70;;
15198;SDS011;7700;48.654;9.070;2022-11-21T07:59:03;0.90;;;0.77;;
15198;SDS011;7700;48.654;9.070;2022-11-21T08:01:29;1.10;;;0.73;;
15198;SDS011;7700;48.654;9.070;2022-11-21T08:03:55;1.00;;;0.70;;
15198;SDS011;7700;48.654;9.070;2022-11-21T08:06:21;1.00;;;0.70;;
15198;SDS011;7700;48.654;9.070;2022-11-21T08:08:50;2.03;;;1.40;;
15198;SDS011;7700;48.654;9.070;2022-11-21T08:11:16;1.17;;;1.17;;
15198;SDS011;7700;48.654;9.070;2022-11-21T08:13:43;1.53;;;1.43;;
15198;SDS011;7700;48.654;9.070;2022-11-21T08:16:09;2.23;;;0.90;;
15198;SDS011;7700;48.654;9.070;2022-11-21T08:18:35;2.23;;;1.10;;
15198;SDS011;7700;48.654;9.070;2022-11-21T08:21:01;2.17;;;1.00;;
15198;SDS011;7700;48.654;9.070;2022-11-21T08:23:27;3.07;;;2.00;;
15198;SDS011;7700;48.654;9.070;2022-11-21T08:25:53;3.03;;;1.13;;
15198;SDS011;7700;48.654;9.070;2022-11-21T08:28:19;1.67;;;0.87;;
15198;SDS011;7700;48.654;9.070;2022-11-21T08:30:45;1.70;;;1.20;;
15198;SDS011;7700;48.654;9.070;2022-11-21T08:33:11;2.43;;;1.07;;
15198;SDS011;7700;48.654;9.070;2022-11-21T08:35:38;1.83;;;1.50;;
15198;SDS011;7700;48.654;9.070;2022-11-21T08:38:04;2.93;;;1.03;;
15198;SDS011;7700;48.654;9.070;2022-11-21T08:40:30;3.23;;;1.00;;
15198;SDS011;7700;48.654;9.070;2022-11-21T08:43:06;3.30;;;1.47;;
15198;SDS011;7700;48.654;9.070;2022-11-21T08:45:33;2.57;;;1.17;;
15198;SDS011;7700;48.654;9.070;2022-11-21T08:47:59;4.17;;;1.00;;
15198;SDS011;7700;48.654;9.070;2022-11-21T08:50:26;4.40;;;1.77;;
15198;SDS011;7700;48.654;9.070;2022-11-21T08:52:52;4.10;;;1.23;;
15198;SDS011;7700;48.654;9.070;2022-11-21T08:55:18;2.57;;;1.07;;
15198;SDS011;7700;48.654;9.070;2022-11-21T08:57:50;2.37;;;1.27;;
15198;SDS011;7700;48.654;9.070;2022-11-21T09:00:16;1.97;;;0.93;;
15198;SDS011;7700;48.654;9.070;2022-11-21T09:02:42;1.57;;;0.90;;
15198;SDS011;7700;48.654;9.070;2022-11-21T09:05:08;2.17;;;0.90;;
15198;SDS011;7700;48.654;9.070;2022-11-21T09:07:35;3.00;;;1.37;;
15198;SDS011;7700;48.654;9.070;2022-11-21T09:10:01;1.83;;;1.00;;
15198;SDS011;7700;48.654;9.070;2022-11-21T09:12:27;6.57;;;1.50;;
15198;SDS011;7700;48.654;9.070;2022-11-21T09:14:53;2.13;;;1.13;;
15198;SDS011;7700;48.654;9.070;2022-11-21T09:17:38;2.90;;;1.20;;
15198;SDS011;7700;48.654;9.070;2022-11-21T09:20:23;3.63;;;1.57;;
15198;SDS011;7700;48.654;9.070;2022-11-21T09:22:49;2.10;;;1.10;;
15198;SDS011;7700;48.654;9.070;2022-11-21T09:25:16;2.17;;;0.80;;
15198;SDS011;7700;48.654;9.070;2022-11-21T09:27:42;2.10;;;1.10;;
15198;SDS011;7700;48.654;9.070;2022-11-21T09:30:08;3.67;;;1.40;;
15198;SDS011;7700;48.654;9.070;2022-11-21T09:32:34;3.10;;;1.20;;
15198;SDS011;7700;48.654;9.070;2022-11-21T09:35:01;2.67;;;1.17;;
15198;SDS011;7700;48.654;9.070;2022-11-21T09:37:27;2.60;;;1.07;;
15198;SDS011;7700;48.654;9.070;2022-11-21T09:39:53;2.37;;;1.00;;
15198;SDS011;7700;48.654;9.070;2022-11-21T09:42:37;3.30;;;1.07;;
15198;SDS011;7700;48.654;9.070;2022-11-21T09:45:12;1.60;;;0.87;;
15198;SDS011;7700;48.654;9.070;2022-11-21T09:47:44;3.67;;;1.07;;
15198;SDS011;7700;48.654;9.070;2022-11-21T09:52:48;2.87;;;1.10;;
15198;SDS011;7700;48.654;9.070;2022-11-21T09:57:44;1.63;;;0.80;;
15198;SDS011;7700;48.654;9.070;2022-11-21T10:03:41;4.67;;;1.37;;
15198;SDS011;7700;48.654;9.070;2022-11-21T10:08:55;2.80;;;0.90;;
15198;SDS011;7700;48.654;9.070;2022-11-21T10:16:34;2.40;;;0.88;;
15198;SDS011;7700;48.654;9.070;2022-11-21T10:19:06;2.88;;;1.13;;
15198;SDS011;7700;48.654;9.070;2022-11-21T10:21:45;2.45;;;1.33;;
15198;SDS011;7700;48.654;9.070;2022-11-21T10:24:21;2.28;;;0.80;;
15198;SDS011;7700;48.654;9.070;2022-11-21T10:26:55;3.70;;;1.20;;
15198;SDS011;7700;48.654;9.070;2022-11-21T10:31:56;3.25;;;1.08;;
15198;SDS011;7700;48.654;9.070;2022-11-21T10:34:24;2.63;;;1.02;;
15198;SDS011;7700;48.654;9.070;2022-11-21T10:36:53;3.63;;;1.40;;
15198;SDS011;7700;48.654;9.070;2022-11-21T10:44:37;1.65;;;0.88;;
15198;SDS011;7700;48.654;9.070;2022-11-21T10:47:23;1.98;;;1.15;;
15198;SDS011;7700;48.654;9.070;2022-11-21T10:50:09;4.57;;;1.33;;
15198;SDS011;7700;48.654;9.070;2022-11-21T10:55:07;2.90;;;1.15;;
15198;SDS011;7700;48.654;9.070;2022-11-21T10:57:54;2.58;;;1.10;;
15198;SDS011;7700;48.654;9.070;2022-11-21T11:00:23;3.13;;;1.35;;
15198;SDS011;7700;48.654;9.070;2022-11-21T11:05:28;3.40;;;1.25;;
15198;SDS011;7700;48.654;9.070;2022-11-21T11:08:11;2.47;;;1.15;;
15198;SDS011;7700;48.654;9.070;2022-11-21T11:10:38;4.07;;;1.10;;
15198;SDS011;7700;48.654;9.070;2022-11-21T11:13:12;2.00;;;1.00;;
15198;SDS011;7700;48.654;9.070;2022-11-21T11:16:00;5.13;;;1.30;;
15198;SDS011;7700;48.654;9.070;2022-11-21T11:18:27;2.78;;;0.90;;
15198;SDS011;7700;48.654;9.070;2022-11-21T11:20:56;6.20;;;1.40;;
15198;SDS011;7700;48.654;9.070;2022-11-21T11:23:33;4.40;;;1.63;;
15198;SDS011;7700;48.654;9.070;2022-11-21T11:25:59;2.77;;;1.13;;
15198;SDS011;7700;48.654;9.070;2022-11-21T11:28:29;2.60;;;0.83;;
15198;SDS011;7700;48.654;9.070;2022-11-21T11:30:58;2.87;;;1.00;;
15198;SDS011;7700;48.654;9.070;2022-11-21T11:33:29;3.43;;;1.03;;
15198;SDS011;7700;48.654;9.070;2022-11-21T11:35:55;2.67;;;1.27;;
15198;SDS011;7700;48.654;9.070;2022-11-21T11:38:24;2.83;;;1.00;;
15198;SDS011;7700;48.654;9.070;2022-11-21T11:40:51;1.10;;;0.93;;
15198;SDS011;7700;48.654;9.070;2022-11-21T11:48:54;3.77;;;1.07;;
15198;SDS011;7700;48.654;9.070;2022-11-21T11:51:39;3.07;;;1.23;;
15198;SDS011;7700;48.654;9.070;2022-11-21T11:54:07;2.87;;;1.17;;
15198;SDS011;7700;48.654;9.070;2022-11-21T11:56:37;1.87;;;0.80;;
15198;SDS011;7700;48.654;9.070;2022-11-21T12:04:20;2.67;;;1.23;;
15198;SDS011;7700;48.654;9.070;2022-11-21T12:12:29;3.93;;;1.43;;
15198;SDS011;7700;48.654;9.070;2022-11-21T12:20:28;1.73;;;1.10;;
15198;SDS011;7700;48.654;9.070;2022-11-21T12:22:55;2.87;;;0.90;;
15198;SDS011;7700;48.654;9.070;2022-11-21T12:25:28;3.77;;;1.17;;
15198;SDS011;7700;48.654;9.070;2022-11-21T12:27:54;2.57;;;0.87;;
15198;SDS011;7700;48.654;9.070;2022-11-21T12:33:11;2.60;;;0.90;;
15198;SDS011;7700;48.654;9.070;2022-11-21T12:35:45;3.03;;;1.23;;
15198;SDS011;7700;48.654;9.070;2022-11-21T12:41:02;3.03;;;1.53;;
15198;SDS011;7700;48.654;9.070;2022-11-21T12:44:04;3.47;;;1.23;;
15198;SDS011;7700;48.654;9.070;2022-11-21T12:46:39;5.03;;;1.43;;
15198;SDS011;7700;48.654;9.070;2022-11-21T12:49:32;3.40;;;1.70;;
15198;SDS011;7700;48.654;9.070;2022-11-21T12:52:13;4.27;;;1.53;;
15198;SDS011;7700;48.654;9.070;2022-11-21T12:55:18;4.00;;;1.40;;
15198;SDS011;7700;48.654;9.070;2022-11-21T13:03:16;3.00;;;1.10;;
15198;SDS011;7700;48.654;9.070;2022-11-21T13:05:45;4.00;;;1.07;;
15198;SDS011;7700;48.654;9.070;2022-11-21T13:08:20;3.90;;;1.33;;
15198;SDS011;7700;48.654;9.070;2022-11-21T13:13:36;5.90;;;1.20;;
15198;SDS011;7700;48.654;9.070;2022-11-21T13:16:06;4.07;;;1.07;;
15198;SDS011;7700;48.654;9.070;2022-11-21T13:18:35;3.73;;;1.40;;
15198;SDS011;7700;48.654;9.070;2022-11-21T13:21:08;4.90;;;1.50;;
15198;SDS011;7700;48.654;9.070;2022-11-21T13:23:52;3.70;;;1.40;;
15198;SDS011;7700;48.654;9.070;2022-11-21T13:28:50;3.40;;;1.40;;
15198;SDS011;7700;48.654;9.070;2022-11-21T13:31:27;5.60;;;1.30;;
15198;SDS011;7700;48.654;9.070;2022-11-21T13:33:53;3.37;;;1.17;;
15198;SDS011;7700;48.654;9.070;2022-11-21T13:44:28;3.07;;;1.40;;
15198;SDS011;7700;48.654;9.070;2022-11-21T13:47:04;3.10;;;1.50;;
15198;SDS011;7700;48.654;9.070;2022-11-21T13:52:05;5.87;;;1.43;;
15198;SDS011;7700;48.654;9.070;2022-11-21T13:54:56;4.13;;;1.50;;
15198;SDS011;7700;48.654;9.070;2022-11-21T13:57:28;3.87;;;1.30;;
15198;SDS011;7700;48.654;9.070;2022-11-21T14:00:02;4.07;;;1.10;;
15198;SDS011;7700;48.654;9.070;2022-11-21T14:07:36;5.73;;;1.20;;
15198;SDS011;7700;48.654;9.070;2022-11-21T14:10:05;5.30;;;1.50;;
15198;SDS011;7700;48.654;9.070;2022-11-21T14:12:33;4.57;;;1.37;;
15198;SDS011;7700;48.654;9.070;2022-11-21T14:20:15;5.43;;;1.43;;
15198;SDS011;7700;48.654;9.070;2022-11-21T14:22:45;3.93;;;1.50;;
15198;SDS011;7700;48.654;9.070;2022-11-21T14:25:14;8.43;;;1.47;;
15198;SDS011;7700;48.654;9.070;2022-11-21T14:27:40;5.07;;;1.67;;
15198;SDS011;7700;48.654;9.070;2022-11-21T14:32:54;4.43;;;1.13;;
15198;SDS011;7700;48.654;9.070;2022-11-21T14:35:21;5.20;;;1.53;;
15198;SDS011;7700;48.654;9.070;2022-11-21T14:37:48;3.80;;;1.37;;
15198;SDS011;7700;48.654;9.070;2022-11-21T14:40:21;4.30;;;1.20;;
15198;SDS011;7700;48.654;9.070;2022-11-21T14:42:47;3.53;;;1.37;;
15198;SDS011;7700;48.654;9.070;2022-11-21T14:45:17;3.77;;;1.23;;
15198;SDS011;7700;48.654;9.070;2022-11-21T14:47:47;3.13;;;1.20;;
15198;SDS011;7700;48.654;9.070;2022-11-21T14:50:21;2.97;;;1.10;;
15198;SDS011;7700;48.654;9.070;2022-11-21T14:52:47;2.33;;;1.20;;
15198;SDS011;7700;48.654;9.070;2022-11-21T14:55:21;3.67;;;1.60;;
15198;SDS011;7700;48.654;9.070;2022-11-21T14:57:49;3.30;;;1.47;;
15198;SDS011;7700;48.654;9.070;2022-11-21T15:00:15;2.67;;;1.20;;
15198;SDS011;7700;48.654;9.070;2022-11-21T15:02:43;2.90;;;1.10;;
15198;SDS011;7700;48.654;9.070;2022-11-21T15:05:13;2.93;;;1.20;;
15198;SDS011;7700;48.654;9.070;2022-11-21T15:07:43;4.97;;;1.10;;
15198;SDS011;7700;48.654;9.070;2022-11-21T15:10:14;3.07;;;1.10;;
15198;SDS011;7700;48.654;9.070;2022-11-21T15:12:55;4.67;;;1.50;;
15198;SDS011;7700;48.654;9.070;2022-11-21T15:17:51;2.33;;;1.30;;
15198;SDS011;7700;48.654;9.070;2022-11-21T15:20:19;5.03;;;1.33;;
15198;SDS011;7700;48.654;9.070;2022-11-21T15:22:46;4.23;;;1.10;;
15198;SDS011;7700;48.654;9.070;2022-11-21T15:25:14;4.47;;;1.50;;
15198;SDS011;7700;48.654;9.070;2022-11-21T15:27:41;3.67;;;1.80;;
15198;SDS011;7700;48.654;9.070;2022-11-21T15:43:37;1.57;;;1.20;;
15198;SDS011;7700;48.654;9.070;2022-11-21T15:46:11;3.87;;;1.30;;
15198;SDS011;7700;48.654;9.070;2022-11-21T15:48:38;3.00;;;1.40;;
15198;SDS011;7700;48.654;9.070;2022-11-21T15:51:04;3.83;;;1.20;;
15198;SDS011;7700;48.654;9.070;2022-11-21T15:53:30;6.43;;;3.53;;
15198;SDS011;7700;48.654;9.070;2022-11-21T15:55:56;8.97;;;5.70;;
15198;SDS011;7700;48.654;9.070;2022-11-21T15:58:22;8.13;;;6.10;;
15198;SDS011;7700;48.654;9.070;2022-11-21T16:00:49;7.37;;;5.53;;
15198;SDS011;7700;48.654;9.070;2022-11-21T16:03:15;8.03;;;6.07;;
15198;SDS011;7700;48.654;9.070;2022-11-21T16:05:41;12.47;;;7.80;;
15198;SDS011;7700;48.654;9.070;2022-11-21T16:08:06;13.27;;;8.67;;
15198;SDS011;7700;48.654;9.070;2022-11-21T16:10:33;10.50;;;5.93;;
15198;SDS011;7700;48.654;9.070;2022-11-21T16:13:00;7.80;;;3.63;;
15198;SDS011;7700;48.654;9.070;2022-11-21T16:15:26;4.77;;;2.87;;
15198;SDS011;7700;48.654;9.070;2022-11-21T16:17:52;6.33;;;2.80;;
15198;SDS011;7700;48.654;9.070;2022-11-21T16:20:18;5.60;;;2.10;;
15198;SDS011;7700;48.654;9.070;2022-11-21T16:22:44;8.23;;;5.37;;
15198;SDS011;7700;48.654;9.070;2022-11-21T16:25:10;6.60;;;4.00;;
15198;SDS011;7700;48.654;9.070;2022-11-21T16:27:36;7.23;;;2.70;;
15198;SDS011;7700;48.654;9.070;2022-11-21T16:30:02;9.13;;;3.07;;
15198;SDS011;7700;48.654;9.070;2022-11-21T16:32:28;5.87;;;3.33;;
15198;SDS011;7700;48.654;9.070;2022-11-21T16:34:54;9.27;;;4.37;;
15198;SDS011;7700;48.654;9.070;2022-11-21T16:37:22;6.73;;;5.00;;
15198;SDS011;7700;48.654;9.070;2022-11-21T16:39:48;7.00;;;4.80;;
15198;SDS011;7700;48.654;9.070;2022-11-21T16:42:16;7.43;;;4.27;;
15198;SDS011;7700;48.654;9.070;2022-11-21T16:44:42;5.80;;;4.03;;
15198;SDS011;7700;48.654;9.070;2022-11-21T16:47:08;4.27;;;3.03;;
15198;SDS011;7700;48.654;9.070;2022-11-21T16:49:35;7.57;;;5.00;;
15198;SDS011;7700;48.654;9.070;2022-11-21T16:52:06;22.70;;;15.27;;
15198;SDS011;7700;48.654;9.070;2022-11-21T16:54:33;10.77;;;7.50;;
15198;SDS011;7700;48.654;9.070;2022-11-21T16:56:59;7.30;;;2.50;;
15198;SDS011;7700;48.654;9.070;2022-11-21T16:59:25;2.90;;;2.43;;
15198;SDS011;7700;48.654;9.070;2022-11-21T17:01:51;3.73;;;1.83;;